Please be sure to check the latest weather conditions by clicking the link and viewing our local weather information!

Check Weather

Welcome to Lakeway Airpark (3R9)

FromTheAir

We’re a community airpark nestled within the town of Lakeway, Texas (17 miles northwest of downtown Austin).

Lakeway Airpark, Inc. was formed by Lakeway residents and interested parties to own and manage Lakeway Airpark (3R9).

The Airpark is a privately owned not for profit public use airport for residents and guests of Lakeway. No public funds are used and the airport is supported by fees and fuel sales at the airport.

Lakeway Airpark is an unmanned facility open for use from Sunrise to Sunset seven days a week. Takeoffs and landings are not permitted at night, between Sunset and Sunrise, by City Ordinance.

Quick Weather Info

Available data for KAUS from the past 2 hours
AUSTIN, TX
Metar
KAUS 211553Z 17010KT 10SM BKN016 BKN022 OVC120 29/25 A2997 RMK AO2 RAE1455B31E52 SLP136 P0000 T02890250

15:53 UTC

Wind: 170° 10kt

Visibility: 10 SM

Sky: BKN 1600 ft

Temp: 29 deg C / 84.2 deg F

Dewpoint: 25 deg C / 77 deg F

Pressure: 29.97 inHg

TAF
KAUS 211628Z 2116/2218 17008KT P6SM VCSH BKN015 TEMPO 2116/2118 -SHRA FM212000 16005KT P6SM BKN030 FM220700 15005KT P6SM VCSH BKN015 FM221100 17005KT 6SM SHRA BR BKN008